createdAt,value
2022-10-27T00:02:39.657Z,2.88
2022-10-27T00:05:23.191Z,3.05
2022-10-27T00:08:06.585Z,2.28
2022-10-27T00:10:57.836Z,3.03
2022-10-27T00:13:42.098Z,2.67
2022-10-27T00:16:25.253Z,2.72
2022-10-27T00:19:08.103Z,2.72
2022-10-27T00:21:51.807Z,2.78
2022-10-27T00:24:34.710Z,2.78
2022-10-27T00:27:17.633Z,3.17
2022-10-27T00:30:01.856Z,2.63
2022-10-27T00:32:46.012Z,3.60
2022-10-27T00:35:28.852Z,3.47
2022-10-27T00:38:11.699Z,3.53
2022-10-27T00:40:54.611Z,3.22
2022-10-27T00:43:39.718Z,3.30
2022-10-27T00:46:32.539Z,3.47
2022-10-27T00:49:18.668Z,2.92
2022-10-27T00:52:05.356Z,2.70
2022-10-27T00:54:48.883Z,3.17
2022-10-27T00:57:33.560Z,3.10
2022-10-27T01:00:17.447Z,2.70
2022-10-27T01:03:01.776Z,3.42
2022-10-27T01:05:45.911Z,2.90
2022-10-27T01:08:28.808Z,3.15
2022-10-27T01:11:11.696Z,3.45
2022-10-27T01:13:54.868Z,3.38
2022-10-27T01:16:46.696Z,3.63
2022-10-27T01:19:52.541Z,3.58
2022-10-27T01:22:43.142Z,3.55
2022-10-27T01:26:07.410Z,3.65
2022-10-27T01:29:22.500Z,3.38
2022-10-27T01:32:25.615Z,3.28
2022-10-27T01:35:15.907Z,3.05
2022-10-27T01:38:07.534Z,3.25
2022-10-27T01:41:01.123Z,3.13
2022-10-27T01:43:46.711Z,3.58
2022-10-27T01:46:30.018Z,4.03
2022-10-27T01:49:14.258Z,3.22
2022-10-27T01:52:05.664Z,3.75
2022-10-27T01:54:48.539Z,3.20
2022-10-27T01:57:43.277Z,4.00
2022-10-27T02:00:26.182Z,3.78
2022-10-27T02:03:14.667Z,3.53
2022-10-27T02:06:08.615Z,4.07
2022-10-27T02:08:55.973Z,3.53
2022-10-27T02:11:42.120Z,3.75
2022-10-27T02:14:26.087Z,3.70
2022-10-27T02:17:12.273Z,4.00
2022-10-27T02:19:58.023Z,3.50
2022-10-27T02:22:46.220Z,4.22
2022-10-27T02:25:40.911Z,4.43
2022-10-27T02:28:29.254Z,4.43
2022-10-27T02:31:14.684Z,4.35
2022-10-27T02:33:59.033Z,4.47
2022-10-27T02:36:42.056Z,4.15
2022-10-27T02:39:26.483Z,3.35
2022-10-27T02:42:09.333Z,3.70
2022-10-27T02:44:52.267Z,3.28
2022-10-27T02:47:35.071Z,3.20
2022-10-27T02:50:17.949Z,3.08
2022-10-27T02:53:00.822Z,3.22
2022-10-27T02:55:45.096Z,3.60
2022-10-27T02:58:27.905Z,3.85
2022-10-27T03:01:10.988Z,3.50
2022-10-27T03:03:53.919Z,3.75
2022-10-27T03:06:36.787Z,3.72
2022-10-27T03:09:19.605Z,3.38
2022-10-27T03:12:03.993Z,2.92
2022-10-27T03:14:46.826Z,2.90
2022-10-27T03:17:29.707Z,2.15
2022-10-27T03:20:13.394Z,2.55
2022-10-27T03:22:56.428Z,2.92
2022-10-27T03:25:47.322Z,2.60
2022-10-27T03:28:35.377Z,2.40
2022-10-27T03:31:18.214Z,1.98
2022-10-27T03:34:01.154Z,1.77
2022-10-27T03:36:44.000Z,1.70
2022-10-27T03:39:27.031Z,1.42
2022-10-27T03:42:10.050Z,1.38
2022-10-27T03:44:54.231Z,1.67
2022-10-27T03:47:37.503Z,1.98
2022-10-27T03:50:20.295Z,2.10
2022-10-27T03:53:03.846Z,1.70
2022-10-27T03:55:49.026Z,2.03
2022-10-27T03:58:31.940Z,1.70
2022-10-27T04:01:16.392Z,2.15
2022-10-27T04:03:59.329Z,2.03
2022-10-27T04:06:42.279Z,3.00
2022-10-27T04:09:25.092Z,2.70
2022-10-27T04:12:08.348Z,2.78
2022-10-27T04:14:51.177Z,4.38
2022-10-27T04:17:35.441Z,4.82
2022-10-27T04:20:18.327Z,4.00
2022-10-27T04:23:01.401Z,4.10
2022-10-27T04:25:45.420Z,3.63
2022-10-27T04:28:28.295Z,3.53
2022-10-27T04:31:11.191Z,3.20
2022-10-27T04:33:55.493Z,2.92
2022-10-27T04:36:38.348Z,3.13
2022-10-27T04:39:21.227Z,3.38
2022-10-27T04:42:04.045Z,3.40
2022-10-27T04:44:47.474Z,3.65
2022-10-27T04:47:30.338Z,3.95
2022-10-27T04:50:15.642Z,4.10
2022-10-27T04:53:00.127Z,4.30
2022-10-27T04:55:42.988Z,5.05
2022-10-27T04:58:25.891Z,5.05
2022-10-27T05:01:09.541Z,5.07
2022-10-27T05:03:52.468Z,4.38
2022-10-27T05:06:36.701Z,3.83
2022-10-27T05:09:19.555Z,3.00
2022-10-27T05:12:02.482Z,3.20
2022-10-27T05:14:45.303Z,3.22
2022-10-27T05:17:28.214Z,3.05
2022-10-27T05:20:11.740Z,2.85
2022-10-27T05:22:56.064Z,3.70
2022-10-27T05:25:39.020Z,3.22
2022-10-27T05:28:22.509Z,3.35
2022-10-27T05:31:05.766Z,2.92
2022-10-27T05:33:48.718Z,2.35
2022-10-27T05:36:31.545Z,2.22
2022-10-27T05:39:15.809Z,2.05
2022-10-27T05:41:58.674Z,2.00
2022-10-27T05:44:41.557Z,2.15
2022-10-27T05:47:24.354Z,1.90
2022-10-27T05:50:08.036Z,2.35
2022-10-27T05:52:51.125Z,2.63
2022-10-27T05:55:36.493Z,3.90
2022-10-27T05:58:19.418Z,3.08
2022-10-27T06:01:02.305Z,2.97
2022-10-27T06:03:45.265Z,3.83
2022-10-27T06:06:28.396Z,3.80
2022-10-27T06:09:11.262Z,3.72
2022-10-27T06:11:55.578Z,3.90
2022-10-27T06:14:38.464Z,4.03
2022-10-27T06:17:21.344Z,3.30
2022-10-27T06:20:04.819Z,3.67
2022-10-27T06:22:48.323Z,4.10
2022-10-27T06:25:31.316Z,3.80
2022-10-27T06:28:15.616Z,3.40
2022-10-27T06:30:58.947Z,3.70
2022-10-27T06:33:41.800Z,3.33
2022-10-27T06:36:25.276Z,3.15
2022-10-27T06:39:08.113Z,3.38
2022-10-27T06:41:51.005Z,3.13
2022-10-27T06:44:40.203Z,3.63
2022-10-27T06:47:23.070Z,3.47
2022-10-27T06:50:07.470Z,3.53
2022-10-27T06:52:51.525Z,3.78
2022-10-27T06:55:34.946Z,3.45
2022-10-27T06:58:17.861Z,3.08
2022-10-27T07:01:02.388Z,3.00
2022-10-27T07:03:45.590Z,3.15
2022-10-27T07:06:28.410Z,3.28
2022-10-27T07:09:11.438Z,3.00
2022-10-27T07:11:54.310Z,2.65
2022-10-27T07:14:37.185Z,3.60
2022-10-27T07:20:10.154Z,4.38
2022-10-27T07:22:53.378Z,3.53
2022-10-27T07:25:36.761Z,4.28
2022-10-27T07:28:19.697Z,3.90
2022-10-27T07:31:02.539Z,3.55
2022-10-27T07:33:46.789Z,4.13
2022-10-27T07:36:29.627Z,3.80
2022-10-27T07:39:12.490Z,3.03
2022-10-27T07:41:55.338Z,3.50
2022-10-27T07:44:38.275Z,3.67
2022-10-27T07:47:21.142Z,6.18
2022-10-27T07:50:06.553Z,8.10
2022-10-27T07:52:51.605Z,7.88
2022-10-27T07:55:36.656Z,6.15
2022-10-27T07:58:19.770Z,4.38
2022-10-27T08:01:04.320Z,4.72
2022-10-27T08:03:51.116Z,7.78
2022-10-27T08:06:35.641Z,6.22
2022-10-27T08:09:19.979Z,7.05
2022-10-27T08:12:03.050Z,5.60
2022-10-27T08:14:45.873Z,4.88
2022-10-27T08:17:30.186Z,5.57
2022-10-27T08:20:13.124Z,5.32
2022-10-27T08:22:58.442Z,4.45
2022-10-27T08:25:42.041Z,5.32
2022-10-27T08:28:25.168Z,4.63
2022-10-27T08:31:08.645Z,5.05
2022-10-27T08:33:51.462Z,4.28
2022-10-27T08:36:39.139Z,4.22
2022-10-27T08:39:23.327Z,4.25
2022-10-27T08:42:13.598Z,3.65
2022-10-27T08:45:02.676Z,6.28
2022-10-27T08:47:45.746Z,4.22
2022-10-27T08:50:31.564Z,5.05
2022-10-27T08:53:19.768Z,3.95
2022-10-27T08:56:10.338Z,4.03
2022-10-27T08:58:53.354Z,4.68
2022-10-27T09:01:46.001Z,3.90
2022-10-27T09:04:48.708Z,3.28
2022-10-27T09:07:40.318Z,3.58
2022-10-27T09:10:41.240Z,2.97
2022-10-27T09:13:43.262Z,2.75
2022-10-27T09:16:34.197Z,3.08
2022-10-27T09:19:23.696Z,2.25
2022-10-27T09:22:13.431Z,2.42
2022-10-27T09:25:00.740Z,1.75
2022-10-27T09:27:45.149Z,2.00
2022-10-27T09:30:36.110Z,1.63
2022-10-27T09:33:23.856Z,2.03
2022-10-27T09:36:15.341Z,1.75
2022-10-27T09:38:58.256Z,1.65
2022-10-27T09:41:41.318Z,1.45
2022-10-27T09:44:26.759Z,2.03
2022-10-27T09:47:11.477Z,1.50
2022-10-27T09:49:54.345Z,1.83
2022-10-27T09:52:42.718Z,1.55
2022-10-27T09:55:49.971Z,1.45
2022-10-27T09:58:33.043Z,2.13
2022-10-27T10:01:15.951Z,1.85
2022-10-27T10:04:10.383Z,1.55
2022-10-27T10:06:57.163Z,1.60
2022-10-27T10:09:40.501Z,1.23
2022-10-27T10:12:25.048Z,1.50
2022-10-27T10:15:21.083Z,1.88
2022-10-27T10:18:05.961Z,1.70
2022-10-27T10:20:57.710Z,2.05
2022-10-27T10:23:53.314Z,1.80
2022-10-27T10:26:36.229Z,1.80
2022-10-27T10:29:28.272Z,2.15
2022-10-27T10:32:14.987Z,1.88
2022-10-27T10:35:00.638Z,1.80
2022-10-27T10:37:46.657Z,1.92
2022-10-27T10:40:30.802Z,1.90
2022-10-27T10:43:15.994Z,1.90
2022-10-27T10:45:59.693Z,1.88
2022-10-27T10:48:47.345Z,1.92
2022-10-27T10:51:32.862Z,1.75
2022-10-27T10:54:22.759Z,1.27
2022-10-27T10:57:06.202Z,2.42
2022-10-27T10:59:53.517Z,1.45
2022-10-27T11:02:36.417Z,1.80
2022-10-27T11:08:21.566Z,1.67
2022-10-27T11:11:12.344Z,1.73
2022-10-27T11:14:00.188Z,1.77
2022-10-27T11:16:48.395Z,1.63
2022-10-27T11:19:38.980Z,1.70
2022-10-27T11:22:23.168Z,1.75
2022-10-27T11:25:08.674Z,1.80
2022-10-27T11:28:04.095Z,2.00
2022-10-27T11:30:54.591Z,1.80
2022-10-27T11:33:47.332Z,1.40
2022-10-27T11:36:37.508Z,1.70
2022-10-27T11:39:26.480Z,2.13
2022-10-27T11:42:19.693Z,1.75
2022-10-27T11:45:12.512Z,1.70
2022-10-27T11:48:00.769Z,1.77
2022-10-27T11:50:49.942Z,1.40
2022-10-27T11:53:36.292Z,1.60
2022-10-27T11:56:36.560Z,1.60
2022-10-27T11:59:23.969Z,1.50
2022-10-27T12:02:27.374Z,1.42
2022-10-27T12:05:14.027Z,1.30
2022-10-27T12:08:08.811Z,1.88
2022-10-27T12:11:06.475Z,1.60
2022-10-27T12:13:56.824Z,1.65
2022-10-27T12:16:46.429Z,1.40
2022-10-27T12:19:35.783Z,1.73
2022-10-27T12:22:23.923Z,1.50
2022-10-27T12:25:12.717Z,1.70
2022-10-27T12:27:58.385Z,1.23
2022-10-27T12:30:46.058Z,1.38
2022-10-27T12:33:35.522Z,1.30
2022-10-27T12:36:26.717Z,1.00
2022-10-27T12:39:20.579Z,1.30
2022-10-27T12:42:10.754Z,1.00
2022-10-27T12:45:02.349Z,1.10
2022-10-27T12:47:56.654Z,1.90
2022-10-27T12:50:45.522Z,1.10
2022-10-27T12:53:43.784Z,1.27
2022-10-27T12:56:32.209Z,1.30
2022-10-27T12:59:25.290Z,1.10
2022-10-27T13:02:12.462Z,1.50
2022-10-27T13:05:33.759Z,1.10
2022-10-27T13:08:42.701Z,1.40
2022-10-27T13:11:52.441Z,1.13
2022-10-27T13:15:11.144Z,1.10
2022-10-27T13:18:03.111Z,1.10
2022-10-27T13:20:53.492Z,1.48
2022-10-27T13:23:46.181Z,1.50
2022-10-27T13:26:34.604Z,1.85
2022-10-27T13:29:29.480Z,1.60
2022-10-27T13:32:39.573Z,1.35
2022-10-27T13:35:33.945Z,1.60
2022-10-27T13:38:26.739Z,1.83
2022-10-27T13:41:10.970Z,1.20
2022-10-27T13:43:59.675Z,1.60
2022-10-27T13:47:16.194Z,1.65
2022-10-27T13:50:00.645Z,1.20
2022-10-27T13:52:43.489Z,1.30
2022-10-27T13:55:34.918Z,1.00
2022-10-27T13:58:33.590Z,1.52
2022-10-27T14:01:25.705Z,1.17
2022-10-27T14:04:40.167Z,1.40
2022-10-27T14:07:26.299Z,1.23
2022-10-27T14:10:14.613Z,1.77
2022-10-27T14:12:59.191Z,1.23
2022-10-27T14:15:43.490Z,1.20
2022-10-27T14:18:30.753Z,1.33
2022-10-27T14:21:19.147Z,1.42
2022-10-27T14:24:08.265Z,1.30
2022-10-27T14:26:58.298Z,1.40
2022-10-27T14:29:41.163Z,1.70
2022-10-27T14:32:27.577Z,1.35
2022-10-27T14:35:22.562Z,1.38
2022-10-27T14:38:05.481Z,1.05
2022-10-27T14:40:49.168Z,1.00
2022-10-27T14:43:35.372Z,0.80
2022-10-27T14:46:21.951Z,1.00
2022-10-27T14:49:08.314Z,1.20
2022-10-27T14:51:51.405Z,1.20
2022-10-27T14:54:35.024Z,1.20
2022-10-27T14:57:38.744Z,1.00
2022-10-27T15:00:24.589Z,1.10
2022-10-27T15:03:09.975Z,1.10
2022-10-27T15:05:54.203Z,1.02
2022-10-27T15:08:37.095Z,0.93
2022-10-27T15:11:23.532Z,1.10
2022-10-27T15:14:06.505Z,0.93
2022-10-27T15:16:49.503Z,1.13
2022-10-27T15:19:32.496Z,0.90
2022-10-27T15:22:18.845Z,0.88
2022-10-27T15:25:02.490Z,1.35
2022-10-27T15:27:46.275Z,1.42
2022-10-27T15:30:29.530Z,1.27
2022-10-27T15:33:33.611Z,1.10
2022-10-27T15:36:24.326Z,1.27
2022-10-27T15:39:12.326Z,1.25
2022-10-27T15:41:55.261Z,1.17
2022-10-27T15:44:38.239Z,1.40
2022-10-27T15:47:42.254Z,1.23
2022-10-27T15:50:27.454Z,1.55
2022-10-27T15:53:16.625Z,1.63
2022-10-27T15:56:03.227Z,1.40
2022-10-27T15:59:09.816Z,1.80
2022-10-27T16:01:56.227Z,1.30
2022-10-27T16:04:40.942Z,1.20
2022-10-27T16:07:33.791Z,1.23
2022-10-27T16:10:16.703Z,1.02
2022-10-27T16:13:00.889Z,1.00
2022-10-27T16:15:45.940Z,0.90
2022-10-27T16:18:28.836Z,1.02
2022-10-27T16:21:20.310Z,1.15
2022-10-27T16:24:13.820Z,1.23
2022-10-27T16:26:56.872Z,1.00
2022-10-27T16:29:41.795Z,1.20
2022-10-27T16:32:24.661Z,1.20
2022-10-27T16:35:08.003Z,1.38
2022-10-27T16:37:50.871Z,1.17
2022-10-27T16:40:38.193Z,1.10
2022-10-27T16:43:27.170Z,1.15
2022-10-27T16:46:11.381Z,1.30
2022-10-27T16:48:54.363Z,1.38
2022-10-27T16:51:37.190Z,1.80
2022-10-27T16:54:20.141Z,1.48
2022-10-27T16:57:03.122Z,1.75
2022-10-27T16:59:45.969Z,1.48
2022-10-27T17:02:30.327Z,1.60
2022-10-27T17:05:13.186Z,1.58
2022-10-27T17:07:56.102Z,1.33
2022-10-27T17:10:39.024Z,1.55
2022-10-27T17:13:22.321Z,1.50
2022-10-27T17:16:06.578Z,1.50
2022-10-27T17:18:50.814Z,1.35
2022-10-27T17:21:35.111Z,1.42
2022-10-27T17:24:18.019Z,1.20
2022-10-27T17:27:00.942Z,1.30
2022-10-27T17:29:43.825Z,1.17
2022-10-27T17:32:26.698Z,1.08
2022-10-27T17:35:11.163Z,1.27
2022-10-27T17:37:54.250Z,1.10
2022-10-27T17:40:38.866Z,1.38
2022-10-27T17:43:22.119Z,1.20
2022-10-27T17:46:06.895Z,1.30
2022-10-27T17:51:35.080Z,0.95
2022-10-27T17:54:18.051Z,1.25
2022-10-27T17:57:00.917Z,1.23
2022-10-27T17:59:44.082Z,1.50
2022-10-27T18:02:27.551Z,1.30
2022-10-27T18:05:10.679Z,1.20
2022-10-27T18:07:55.059Z,1.20
2022-10-27T18:10:38.330Z,1.27
2022-10-27T18:13:21.224Z,0.93
2022-10-27T18:16:08.413Z,1.10
2022-10-27T18:18:52.285Z,1.30
2022-10-27T18:21:37.695Z,1.00
2022-10-27T18:24:22.458Z,1.10
2022-10-27T18:29:48.193Z,1.17
2022-10-27T18:32:31.016Z,1.10
2022-10-27T18:35:13.964Z,1.40
2022-10-27T18:37:56.872Z,1.23
2022-10-27T18:40:41.108Z,1.13
2022-10-27T18:43:24.128Z,1.50
2022-10-27T18:46:08.959Z,1.20
2022-10-27T18:51:37.369Z,1.20
2022-10-27T18:54:20.759Z,1.30
2022-10-27T18:57:05.075Z,1.38
2022-10-27T18:59:47.952Z,1.58
2022-10-27T19:02:30.883Z,1.70
2022-10-27T19:05:13.877Z,1.20
2022-10-27T19:07:56.751Z,1.40
2022-10-27T19:10:39.761Z,1.30
2022-10-27T19:13:24.046Z,1.50
2022-10-27T19:16:08.761Z,1.25
2022-10-27T19:18:51.659Z,1.30
2022-10-27T19:21:34.963Z,1.20
2022-10-27T19:24:18.057Z,1.02
2022-10-27T19:27:00.997Z,1.30
2022-10-27T19:29:46.175Z,1.30
2022-10-27T19:32:29.053Z,1.27
2022-10-27T19:35:12.008Z,1.13
2022-10-27T19:37:55.281Z,1.52
2022-10-27T19:40:38.449Z,1.23
2022-10-27T19:43:23.618Z,1.35
2022-10-27T19:46:08.914Z,1.17
2022-10-27T19:48:52.514Z,1.40
2022-10-27T19:51:37.153Z,1.30
2022-10-27T19:54:21.219Z,1.10
2022-10-27T19:57:04.167Z,1.10
2022-10-27T19:59:47.105Z,1.30
2022-10-27T20:02:32.485Z,1.20
2022-10-27T20:05:15.623Z,1.23
2022-10-27T20:07:58.796Z,1.30
2022-10-27T20:10:41.635Z,0.98
2022-10-27T20:13:24.531Z,1.05
2022-10-27T20:16:08.104Z,1.25
2022-10-27T20:18:52.812Z,1.20
2022-10-27T20:21:35.742Z,1.20
2022-10-27T20:24:20.449Z,1.15
2022-10-27T20:29:46.031Z,0.73
2022-10-27T20:32:32.127Z,1.10
2022-10-27T20:35:16.485Z,0.90
2022-10-27T20:37:59.374Z,1.10
2022-10-27T20:40:43.023Z,0.95
2022-10-27T20:43:26.002Z,0.98
2022-10-27T20:46:09.751Z,1.00
2022-10-27T20:48:53.248Z,0.90
2022-10-27T20:51:37.599Z,1.00
2022-10-27T20:54:20.462Z,1.10
2022-10-27T20:57:03.422Z,0.82
2022-10-27T20:59:46.276Z,1.08
2022-10-27T21:02:29.182Z,0.90
2022-10-27T21:05:12.144Z,0.80
2022-10-27T21:07:56.379Z,0.88
2022-10-27T21:10:41.853Z,0.75
2022-10-27T21:13:24.819Z,0.80
2022-10-27T21:16:08.242Z,0.80
2022-10-27T21:18:52.519Z,0.80
2022-10-27T21:21:35.816Z,0.80
2022-10-27T21:24:20.022Z,0.90
2022-10-27T21:27:02.916Z,0.90
2022-10-27T21:29:45.857Z,0.70
2022-10-27T21:32:28.733Z,0.70
2022-10-27T21:35:11.612Z,0.80
2022-10-27T21:37:55.693Z,0.77
2022-10-27T21:40:39.875Z,0.90
2022-10-27T21:43:22.759Z,0.65
2022-10-27T21:46:06.007Z,0.77
2022-10-27T21:48:49.369Z,0.80
2022-10-27T21:51:32.533Z,0.65
2022-10-27T21:54:16.235Z,0.80
2022-10-27T21:57:00.475Z,0.70
2022-10-27T21:59:43.334Z,0.60
2022-10-27T22:02:26.271Z,0.63
2022-10-27T22:05:09.799Z,0.60
2022-10-27T22:07:52.975Z,0.75
2022-10-27T22:10:36.213Z,0.90
2022-10-27T22:13:21.283Z,0.90
2022-10-27T22:18:48.604Z,0.75
2022-10-27T22:21:34.414Z,1.00
2022-10-27T22:24:17.854Z,0.80
2022-10-27T22:27:00.772Z,0.90
2022-10-27T22:29:45.190Z,0.77
2022-10-27T22:32:29.706Z,1.00
2022-10-27T22:35:12.708Z,0.85
2022-10-27T22:37:55.794Z,0.80
2022-10-27T22:40:38.895Z,0.80
2022-10-27T22:43:21.810Z,0.70
2022-10-27T22:46:07.607Z,0.88
2022-10-27T22:48:50.911Z,0.80
2022-10-27T22:51:33.833Z,1.00
2022-10-27T22:54:16.748Z,0.88
2022-10-27T22:56:59.618Z,0.85
2022-10-27T22:59:42.518Z,1.13
2022-10-27T23:02:26.863Z,0.93
2022-10-27T23:05:09.805Z,0.80
2022-10-27T23:07:52.676Z,0.70
2022-10-27T23:10:35.502Z,0.80
2022-10-27T23:13:18.380Z,0.70
2022-10-27T23:16:02.852Z,0.80
2022-10-27T23:18:47.185Z,0.70
2022-10-27T23:21:30.815Z,0.70
2022-10-27T23:24:15.257Z,0.80
2022-10-27T23:26:58.079Z,0.77
2022-10-27T23:29:40.994Z,0.80
2022-10-27T23:32:23.961Z,0.70
2022-10-27T23:35:09.712Z,0.70
2022-10-27T23:37:53.106Z,0.80
2022-10-27T23:40:36.318Z,0.70
2022-10-27T23:43:19.262Z,0.90
2022-10-27T23:46:03.494Z,0.65
2022-10-27T23:48:46.661Z,0.70
2022-10-27T23:51:30.917Z,0.77
2022-10-27T23:54:13.735Z,0.73
2022-10-27T23:56:56.679Z,0.90
2022-10-27T23:59:41.100Z,0.68
